Time;durP1;ratioP1;P1;durP2;ratioP2;P2;SDS_P1;SDS_P2;PMS_P1;PMS_P2;Temp;Humidity;BMP_temperature;BMP_pressure;BME280_temperature;BME280_humidity;BME280_pressure;Samples;Min_cycle;Max_cycle;Signal;HPM_P1;HPM_P2
2022/03/02 00:03:15;;;;;;;56.60;27.53;;;-2.40;99.90;;;;;;2585404;54;19938;31
2022/03/02 00:21:27;;;;;;;71.00;33.30;;;-2.60;99.90;;;;;;2584100;54;20974;31
2022/03/02 00:24:04;;;;;;;72.50;31.88;;;-2.70;99.90;;;;;;2584330;54;20867;31
2022/03/02 00:26:41;;;;;;;68.72;31.63;;;-2.60;99.90;;;;;;2584293;54;20931;31
2022/03/02 00:32:04;;;;;;;66.72;29.23;;;-2.70;99.90;;;;;;2584200;54;20098;31
2022/03/02 01:02:16;;;;;;;70.93;33.13;;;-3.20;99.90;;;;;;2585028;54;20081;31
2022/03/02 01:14:25;;;;;;;69.35;30.75;;;-3.40;99.90;;;;;;2602785;54;20022;31
2022/03/02 01:17:00;;;;;;;66.30;31.30;;;-3.40;99.90;;;;;;2585330;54;20022;31
2022/03/02 01:19:39;;;;;;;76.70;34.53;;;-3.40;99.90;;;;;;2585344;54;20104;31
2022/03/02 01:28:25;;;;;;;80.80;34.90;;;-3.40;99.90;;;;;;2584320;54;21026;31
2022/03/02 01:31:02;;;;;;;94.57;38.90;;;-3.40;99.90;;;;;;2602534;46;20924;31
2022/03/02 01:33:36;;;;;;;86.40;37.80;;;-3.40;99.90;;;;;;2584222;54;20030;31
2022/03/02 01:39:09;;;;;;;73.70;35.35;;;-3.40;99.90;;;;;;2603296;46;21414;31
2022/03/02 01:41:47;;;;;;;84.85;35.35;;;-3.40;99.90;;;;;;2584215;54;20027;31
2022/03/02 01:44:26;;;;;;;81.88;35.47;;;-3.40;99.90;;;;;;2585187;54;20042;31
2022/03/02 01:47:07;;;;;;;74.95;31.85;;;-3.40;99.90;;;;;;2701353;39;20515;31
2022/03/02 01:49:42;;;;;;;65.05;31.55;;;-3.40;99.90;;;;;;2701424;39;21114;31
2022/03/02 01:52:16;;;;;;;63.63;28.45;;;-3.40;99.90;;;;;;2584688;54;20984;31
2022/03/02 01:54:51;;;;;;;70.53;31.17;;;-3.40;99.90;;;;;;2585190;54;20912;31
2022/03/02 01:57:26;;;;;;;65.10;30.70;;;-3.50;99.90;;;;;;2585023;54;20108;31
2022/03/02 02:00:00;;;;;;;69.43;31.08;;;-3.50;99.90;;;;;;2585282;54;21322;31
2022/03/02 02:02:45;;;;;;;71.23;34.83;;;-3.50;99.90;;;;;;2585734;54;20022;31
2022/03/02 02:05:20;;;;;;;65.75;32.45;;;-3.60;99.90;;;;;;2584902;54;20246;31
2022/03/02 02:07:55;;;;;;;70.23;30.33;;;-3.70;99.90;;;;;;2585984;54;20045;31
2022/03/02 02:10:30;;;;;;;74.13;32.30;;;-3.80;99.90;;;;;;2584868;54;21299;31
2022/03/02 02:13:03;;;;;;;78.25;34.75;;;-3.80;99.90;;;;;;2586056;54;21874;31
2022/03/02 02:18:41;;;;;;;71.05;33.05;;;-3.90;99.90;;;;;;2585105;54;20023;31
2022/03/02 02:21:18;;;;;;;73.67;34.87;;;-4.00;99.90;;;;;;2584822;54;20056;31
2022/03/02 02:23:55;;;;;;;67.70;31.70;;;-4.00;99.90;;;;;;2585136;54;20264;31
2022/03/02 02:26:28;;;;;;;71.32;31.42;;;-4.00;99.90;;;;;;2585333;54;20856;31
2022/03/02 02:29:01;;;;;;;78.85;36.13;;;-4.00;99.90;;;;;;2584758;54;20801;31
2022/03/02 02:31:36;;;;;;;73.15;34.25;;;-4.00;99.90;;;;;;2585753;54;20101;31
2022/03/02 02:34:10;;;;;;;76.20;36.10;;;-4.10;99.90;;;;;;2600881;46;22204;31
2022/03/02 02:36:51;;;;;;;74.60;33.30;;;-4.10;99.90;;;;;;2584978;54;20854;31
2022/03/02 02:39:31;;;;;;;73.97;34.58;;;-4.10;99.90;;;;;;2584656;54;21040;31
2022/03/02 02:42:08;;;;;;;74.10;35.90;;;-4.10;99.90;;;;;;2585920;54;20027;31
2022/03/02 02:44:54;;;;;;;61.55;31.17;;;-4.20;99.90;;;;;;2585705;54;20902;31
2022/03/02 02:47:28;;;;;;;75.15;35.83;;;-4.30;99.90;;;;;;2604171;46;20766;31
2022/03/02 03:36:02;;;;;;;91.25;41.08;;;-4.80;99.90;;;;;;2584539;54;20030;31
2022/03/02 03:38:38;;;;;;;85.25;41.58;;;-4.80;99.90;;;;;;2585069;54;20973;31
2022/03/02 03:44:17;;;;;;;80.83;38.57;;;-4.80;99.90;;;;;;2585723;46;21231;31
2022/03/02 03:49:39;;;;;;;79.50;34.40;;;-4.80;99.90;;;;;;2585653;54;22872;31
2022/03/02 04:04:37;;;;;;;88.70;37.13;;;-5.00;99.90;;;;;;2584465;54;20112;31
2022/03/02 04:10:26;;;;;;;96.80;42.15;;;-5.10;99.90;;;;;;2584052;54;20242;31
2022/03/02 04:22:27;;;;;;;122.38;51.90;;;-5.20;99.90;;;;;;2585446;54;20020;31
2022/03/02 04:40:22;;;;;;;110.30;48.67;;;-5.10;99.90;;;;;;2584145;54;20030;31
2022/03/02 04:43:04;;;;;;;113.80;49.40;;;-5.10;99.90;;;;;;2584055;54;20908;31
2022/03/02 04:51:42;;;;;;;100.25;46.95;;;-5.20;99.90;;;;;;2682560;39;22403;31
2022/03/02 05:03:50;;;;;;;101.93;43.73;;;-5.30;99.90;;;;;;2584442;54;20968;31
2022/03/02 05:40:50;;;;;;;121.22;54.47;;;-5.60;99.90;;;;;;2584452;54;20937;31
2022/03/02 05:43:30;;;;;;;130.73;53.88;;;-5.60;99.90;;;;;;2584147;54;19954;31
2022/03/02 05:49:12;;;;;;;132.90;56.37;;;-5.60;99.90;;;;;;2584739;54;20093;31
2022/03/02 05:57:50;;;;;;;136.50;63.72;;;-5.40;99.90;;;;;;2584905;54;20026;31
2022/03/02 06:16:02;;;;;;;122.25;54.55;;;-3.60;99.90;;;;;;2583626;54;20917;31
2022/03/02 06:18:41;;;;;;;108.40;50.65;;;-3.10;99.90;;;;;;2584055;54;20039;31
2022/03/02 06:21:19;;;;;;;106.70;51.30;;;-2.60;99.90;;;;;;2585196;54;22435;31
2022/03/02 06:30:14;;;;;;;200.00;91.55;;;-1.30;99.90;;;;;;2602516;54;20026;31
2022/03/02 06:48:45;;;;;;;84.70;43.00;;;1.20;99.90;;;;;;2585680;54;20023;31
2022/03/02 06:51:24;;;;;;;82.07;40.05;;;1.50;99.90;;;;;;2585799;54;20818;31
2022/03/02 06:53:57;;;;;;;76.88;41.47;;;1.90;99.90;;;;;;2595093;46;21189;31
2022/03/02 06:56:38;;;;;;;75.80;40.40;;;2.20;99.90;;;;;;2604226;46;21076;31
2022/03/02 06:59:12;;;;;;;77.30;38.65;;;2.50;99.90;;;;;;2683731;39;22419;31
2022/03/02 07:04:41;;;;;;;73.70;39.95;;;3.20;99.90;;;;;;2585832;54;20055;31
2022/03/02 07:07:15;;;;;;;78.45;42.92;;;3.70;99.90;;;;;;2604002;46;20875;31
2022/03/02 07:09:54;;;;;;;81.47;39.73;;;4.10;99.90;;;;;;2585644;54;20034;31
2022/03/02 07:12:28;;;;;;;70.68;40.47;;;4.20;99.90;;;;;;2604196;46;20051;31
2022/03/02 07:15:06;;;;;;;68.65;37.85;;;4.60;99.90;;;;;;2585182;54;20779;31
2022/03/02 07:17:40;;;;;;;68.60;37.50;;;5.00;99.90;;;;;;2585591;54;20027;31
2022/03/02 07:20:21;;;;;;;71.15;39.13;;;5.30;99.90;;;;;;2585548;54;19980;31
2022/03/02 07:22:57;;;;;;;71.33;38.90;;;5.50;99.90;;;;;;2585728;54;20089;31
2022/03/02 07:25:36;;;;;;;73.53;37.77;;;5.50;99.90;;;;;;2585461;54;20321;31
2022/03/02 07:28:13;;;;;;;69.40;37.92;;;5.70;99.90;;;;;;2603884;46;20301;31
2022/03/02 07:30:48;;;;;;;65.17;36.13;;;5.90;99.90;;;;;;2585540;54;20820;31
2022/03/02 07:33:27;;;;;;;68.55;36.10;;;6.00;99.90;;;;;;2585598;54;20794;31
2022/03/02 07:38:41;;;;;;;63.15;36.30;;;6.00;99.90;;;;;;2585388;54;20026;31
2022/03/02 07:41:16;;;;;;;68.38;37.67;;;5.90;99.90;;;;;;2589663;46;19941;31
2022/03/02 07:43:55;;;;;;;66.50;37.70;;;6.00;99.90;;;;;;2585482;54;20157;31
2022/03/02 07:46:30;;;;;;;63.35;36.30;;;6.20;99.90;;;;;;2584707;54;20081;31
2022/03/02 07:49:07;;;;;;;60.25;34.65;;;6.20;99.90;;;;;;2584799;54;20909;31
2022/03/02 07:51:45;;;;;;;71.50;35.00;;;6.10;99.90;;;;;;2585333;54;20878;31
2022/03/02 07:54:24;;;;;;;61.03;34.03;;;6.20;99.90;;;;;;2585221;54;20939;31
2022/03/02 07:57:01;;;;;;;68.50;34.92;;;6.20;99.90;;;;;;2585331;54;21115;31
2022/03/02 07:59:37;;;;;;;57.22;35.10;;;6.30;99.90;;;;;;2603577;46;20983;31
2022/03/02 08:05:04;;;;;;;55.00;33.35;;;6.50;99.90;;;;;;2585344;54;20822;31
2022/03/02 08:07:39;;;;;;;;;;;6.60;99.90;;;;;;2585660;54;20857;31
2022/03/02 08:10:20;;;;;;;54.60;31.13;;;6.70;99.90;;;;;;2604025;46;20733;31
2022/03/02 08:12:55;;;;;;;61.15;32.75;;;6.80;99.90;;;;;;2584290;54;20733;31
2022/03/02 08:15:31;;;;;;;54.00;32.00;;;7.10;99.90;;;;;;2584332;54;21028;31
2022/03/02 08:21:01;;;;;;;52.92;30.45;;;7.80;99.90;;;;;;2585574;54;21189;31
2022/03/02 08:23:38;;;;;;;55.80;32.43;;;8.20;99.90;;;;;;2584303;54;20930;31
2022/03/02 08:26:17;;;;;;;41.63;24.90;;;8.30;99.90;;;;;;2585368;54;20039;31
2022/03/02 08:28:55;;;;;;;40.53;25.30;;;8.30;97.70;;;;;;2585541;54;20965;31
2022/03/02 08:31:33;;;;;;;44.05;25.88;;;8.40;97.60;;;;;;2603588;46;21555;31
2022/03/02 08:34:08;;;;;;;49.25;28.45;;;8.10;95.90;;;;;;2586815;46;20977;31
2022/03/02 08:36:41;;;;;;;50.50;23.63;;;8.20;97.30;;;;;;2585244;54;22493;31
2022/03/02 08:42:17;;;;;;;48.70;25.80;;;8.20;94.70;;;;;;2584249;54;20968;31
2022/03/02 09:00:10;;;;;;;38.33;23.10;;;9.10;92.70;;;;;;2584390;54;20915;31
2022/03/02 09:02:47;;;;;;;37.77;24.67;;;9.30;92.30;;;;;;2584540;54;20845;31
2022/03/02 09:05:23;;;;;;;37.88;22.75;;;9.40;91.90;;;;;;2682599;39;20489;31
2022/03/02 09:07:57;;;;;;;;;;;9.20;91.50;;;;;;2603839;46;21891;31
2022/03/02 09:10:34;;;;;;;35.65;21.58;;;9.30;91.20;;;;;;2584586;54;20779;31
2022/03/02 09:13:17;;;;;;;39.53;23.10;;;9.40;91.60;;;;;;2585027;54;20027;31
2022/03/02 09:15:54;;;;;;;33.00;19.20;;;9.50;90.60;;;;;;2682460;39;21465;31
2022/03/02 09:18:32;;;;;;;33.40;21.55;;;9.70;90.00;;;;;;2594589;46;21958;31
2022/03/02 09:24:20;;;;;;;31.80;20.27;;;9.80;87.70;;;;;;2602095;54;20090;31
2022/03/02 09:26:53;;;;;;;33.70;18.40;;;9.70;86.30;;;;;;2681693;39;20512;31
2022/03/02 09:29:32;;;;;;;34.20;18.80;;;9.90;90.90;;;;;;2584718;54;20089;31
2022/03/02 09:32:10;;;;;;;32.90;19.42;;;9.80;86.50;;;;;;2682984;39;21056;31
2022/03/02 09:34:50;;;;;;;34.50;18.60;;;9.90;86.00;;;;;;2584680;54;20891;31
2022/03/02 09:37:27;;;;;;;31.30;17.48;;;10.00;85.50;;;;;;2583950;54;20029;31
2022/03/02 09:40:08;;;;;;;28.30;17.05;;;10.00;83.90;;;;;;2584801;54;20946;31
2022/03/02 09:42:48;;;;;;;26.10;15.88;;;9.90;82.90;;;;;;2584749;54;20941;31
2022/03/02 09:45:21;;;;;;;25.70;16.77;;;9.80;82.00;;;;;;2583903;54;20054;31
2022/03/02 09:48:00;;;;;;;30.42;17.42;;;9.90;82.40;;;;;;2584716;54;20230;31
2022/03/02 09:50:33;;;;;;;32.95;18.50;;;10.00;82.40;;;;;;2583981;54;20904;31
2022/03/02 09:53:14;;;;;;;38.20;18.60;;;9.90;81.30;;;;;;2584873;54;20050;31
2022/03/02 10:08:02;;;;;;;25.77;14.52;;;9.80;79.80;;;;;;2583819;54;21391;31
2022/03/02 10:10:38;;;;;;;36.65;21.55;;;9.80;78.70;;;;;;2584074;54;20034;31
2022/03/02 10:13:15;;;;;;;27.95;17.65;;;9.70;79.00;;;;;;2603443;47;20179;31
2022/03/02 10:15:51;;;;;;;25.25;14.90;;;9.70;79.10;;;;;;2584705;54;20947;31
2022/03/02 10:18:31;;;;;;;28.70;17.00;;;9.60;78.00;;;;;;2583910;54;21005;31
2022/03/02 10:24:18;;;;;;;23.13;14.23;;;9.80;78.60;;;;;;2585130;54;20085;31
2022/03/02 10:36:13;;;;;;;20.38;13.98;;;9.70;78.00;;;;;;2584828;54;20039;31
2022/03/02 10:38:52;;;;;;;28.73;14.50;;;9.80;77.80;;;;;;2584244;54;20084;31
2022/03/02 10:41:31;;;;;;;26.15;14.80;;;9.70;75.60;;;;;;2584345;54;20027;31
2022/03/02 10:44:09;;;;;;;21.13;13.68;;;9.60;75.40;;;;;;2584679;54;21030;31
2022/03/02 10:49:50;;;;;;;22.50;14.65;;;9.50;76.80;;;;;;2584530;54;21242;31
2022/03/02 11:04:44;;;;;;;19.20;13.38;;;9.60;75.30;;;;;;2585252;54;20906;31
2022/03/02 11:07:18;;;;;;;23.03;13.77;;;9.50;75.10;;;;;;2604108;46;21198;31
2022/03/02 11:13:14;;;;;;;22.77;13.47;;;9.40;74.60;;;;;;2584893;54;20887;31
2022/03/02 11:18:53;;;;;;;24.73;13.55;;;9.20;76.90;;;;;;2585169;54;20930;31
2022/03/02 11:21:36;;;;;;;22.73;12.77;;;9.10;76.30;;;;;;2584417;54;20026;31
2022/03/02 11:24:16;;;;;;;19.92;12.32;;;9.10;74.90;;;;;;2603809;46;20027;31
2022/03/02 11:26:57;;;;;;;23.40;13.65;;;9.10;76.20;;;;;;2585523;54;20026;31
2022/03/02 11:29:31;;;;;;;22.90;13.53;;;9.00;75.60;;;;;;2585280;54;20053;31
2022/03/02 11:32:14;;;;;;;21.70;13.65;;;8.90;75.60;;;;;;2585366;54;21087;31
2022/03/02 11:34:51;;;;;;;22.55;12.98;;;8.90;77.80;;;;;;2585395;54;20860;31
2022/03/02 11:37:28;;;;;;;;;;;8.80;75.10;;;;;;2585357;54;20030;31
2022/03/02 11:40:04;;;;;;;24.13;12.83;;;8.70;74.90;;;;;;2603892;46;19961;31
2022/03/02 11:42:38;;;;;;;;;;;8.60;76.30;;;;;;2585185;54;20929;31
2022/03/02 11:51:18;;;;;;;21.55;12.65;;;8.60;77.70;;;;;;2584934;54;20987;31
2022/03/02 11:53:54;;;;;;;23.75;12.85;;;8.60;77.60;;;;;;2585430;54;22484;31
2022/03/02 12:14:00;;;;;;;22.30;13.90;;;8.70;79.70;;;;;;2586009;46;20805;31
2022/03/02 12:19:33;;;;;;;19.00;13.00;;;8.60;77.10;;;;;;2584517;54;20975;31
2022/03/02 12:22:10;;;;;;;30.17;15.23;;;8.50;78.00;;;;;;2584230;54;20030;31
2022/03/02 12:24:46;;;;;;;22.15;12.85;;;8.30;78.00;;;;;;2584225;54;20974;31
2022/03/02 12:27:24;;;;;;;20.45;12.00;;;8.20;76.90;;;;;;2585173;54;20909;31
2022/03/02 12:30:04;;;;;;;37.47;20.00;;;8.00;77.40;;;;;;2752677;31;21532;31
2022/03/02 12:32:54;;;;;;;32.45;19.23;;;8.00;77.90;;;;;;2590451;46;20817;31
2022/03/02 12:48:38;;;;;;;17.35;10.10;;;7.60;76.90;;;;;;2584207;54;20046;31
2022/03/02 13:29:41;;;;;;;14.40;8.15;;;7.00;77.60;;;;;;2602233;54;20057;31
2022/03/02 14:07:08;;;;;;;13.97;7.47;;;6.50;75.00;;;;;;2584456;54;20062;31
2022/03/02 14:25:33;;;;;;;13.52;7.93;;;6.40;76.00;;;;;;2604026;54;20018;31
2022/03/02 14:28:13;;;;;;;14.60;7.95;;;6.40;76.40;;;;;;2584722;54;20896;31
2022/03/02 14:34:01;;;;;;;11.55;7.72;;;6.40;77.20;;;;;;2584712;54;20882;31
2022/03/02 14:49:00;;;;;;;15.07;8.70;;;6.20;80.20;;;;;;2584822;54;20034;31
2022/03/02 14:57:26;;;;;;;16.90;9.35;;;6.00;81.70;;;;;;2701991;39;22322;31
2022/03/02 15:00:08;;;;;;;14.80;8.35;;;6.00;82.30;;;;;;2585402;54;20022;31
2022/03/02 15:02:43;;;;;;;13.10;8.10;;;6.00;81.20;;;;;;2585483;54;20960;31
2022/03/02 15:05:23;;;;;;;14.50;9.07;;;6.00;80.40;;;;;;2585873;54;20054;31
2022/03/02 15:08:08;;;;;;;17.53;8.63;;;6.00;80.50;;;;;;2584235;54;20029;31
2022/03/02 15:10:54;;;;;;;;;;;;;;;;;;;;;
2022/03/02 15:31:52;;;;;;;35.70;20.02;;;6.60;78.30;;;;;;2584753;54;20949;31
2022/03/02 15:37:39;;;;;;;19.77;11.60;;;6.40;79.50;;;;;;2584427;54;20023;31
2022/03/02 15:40:18;;;;;;;18.90;10.30;;;6.30;79.70;;;;;;2600799;46;20904;31
2022/03/02 15:42:53;;;;;;;20.00;10.50;;;6.30;80.00;;;;;;2585206;54;20081;31
2022/03/02 15:45:28;;;;;;;22.55;11.75;;;6.10;81.20;;;;;;2585525;54;20108;31
2022/03/02 15:48:02;;;;;;;37.05;12.35;;;6.10;81.60;;;;;;2585282;54;20029;31
2022/03/02 15:50:41;;;;;;;29.27;11.38;;;6.00;82.60;;;;;;2585364;54;20805;31
2022/03/02 15:53:16;;;;;;;27.73;11.63;;;5.90;83.60;;;;;;2585182;54;20037;31
2022/03/02 15:56:00;;;;;;;23.57;12.23;;;5.80;84.10;;;;;;2585216;54;20357;31
2022/03/02 15:58:36;;;;;;;23.80;13.80;;;5.90;85.10;;;;;;2585546;54;21190;31
2022/03/02 16:01:19;;;;;;;26.40;13.15;;;5.70;86.50;;;;;;2584351;54;20792;31
2022/03/02 16:03:56;;;;;;;26.90;11.80;;;5.60;91.30;;;;;;2585479;54;20034;31
2022/03/02 16:06:31;;;;;;;20.10;12.85;;;5.90;99.90;;;;;;2603501;46;20032;31
2022/03/02 16:09:20;;;;;;;20.63;12.23;;;5.80;91.90;;;;;;2603567;46;20296;31
2022/03/02 16:12:01;;;;;;;18.48;12.55;;;5.80;91.50;;;;;;2585153;54;20927;31
2022/03/02 16:14:38;;;;;;;24.23;13.57;;;5.70;91.50;;;;;;2585026;54;20034;31
2022/03/02 16:17:16;;;;;;;20.98;13.15;;;5.50;91.40;;;;;;2603822;46;21905;31
2022/03/02 16:19:51;;;;;;;24.70;13.70;;;5.50;91.50;;;;;;2585225;54;20959;31
2022/03/02 16:22:26;;;;;;;20.60;13.60;;;5.40;91.70;;;;;;2584399;54;20763;31
2022/03/02 16:25:17;;;;;;;24.77;14.87;;;5.30;91.80;;;;;;2585299;54;20978;31
2022/03/02 16:27:50;;;;;;;31.10;15.73;;;5.20;91.90;;;;;;2603517;46;20922;31
2022/03/02 16:30:31;;;;;;;25.98;16.80;;;5.20;92.10;;;;;;2585438;54;20995;31
2022/03/02 16:33:07;;;;;;;24.17;16.40;;;5.10;92.40;;;;;;2584152;54;20022;31
2022/03/02 16:35:44;;;;;;;22.45;13.75;;;5.00;92.50;;;;;;2585249;54;20800;31
2022/03/02 16:38:39;;;;;;;27.05;14.35;;;4.90;92.60;;;;;;2585335;54;21941;31
2022/03/02 16:41:16;;;;;;;21.27;13.65;;;4.90;92.80;;;;;;2585015;54;20637;31
2022/03/02 16:43:55;;;;;;;23.70;14.60;;;4.80;93.00;;;;;;2585338;54;21171;31
2022/03/02 16:46:32;;;;;;;24.60;14.27;;;4.70;93.30;;;;;;2585432;54;20026;31
2022/03/02 16:49:09;;;;;;;29.25;16.23;;;4.60;93.40;;;;;;2603518;46;20068;31
2022/03/02 16:51:44;;;;;;;26.15;14.93;;;4.60;93.70;;;;;;2752727;31;20647;31
2022/03/02 16:54:19;;;;;;;25.60;15.10;;;4.50;93.80;;;;;;2585103;54;20031;31
2022/03/02 16:57:04;;;;;;;31.83;16.85;;;4.40;93.90;;;;;;2585310;54;20061;31
2022/03/02 16:59:42;;;;;;;33.43;19.00;;;4.40;94.10;;;;;;2603294;46;21462;31
2022/03/02 17:02:22;;;;;;;39.58;22.00;;;4.40;95.00;;;;;;2682378;39;21063;31
2022/03/02 17:05:00;;;;;;;43.15;25.88;;;4.40;97.10;;;;;;2585301;54;20152;31
2022/03/02 17:07:37;;;;;;;48.92;26.92;;;4.40;95.80;;;;;;2584142;54;21048;31
2022/03/02 17:10:34;;;;;;;61.50;34.58;;;4.30;95.60;;;;;;2584775;54;20030;31
2022/03/02 17:13:14;;;;;;;66.18;35.88;;;4.20;95.90;;;;;;2584257;54;20819;31
2022/03/02 17:15:49;;;;;;;69.17;37.53;;;4.20;95.90;;;;;;2584325;54;20780;31
2022/03/02 17:18:33;;;;;;;58.15;31.35;;;4.10;96.20;;;;;;2604017;46;21304;31
2022/03/02 17:21:10;;;;;;;67.93;37.17;;;4.00;96.30;;;;;;2584853;54;20612;31
2022/03/02 17:23:45;;;;;;;62.35;32.95;;;3.90;96.50;;;;;;2585301;54;20110;31
2022/03/02 17:26:20;;;;;;;66.15;35.20;;;3.90;96.60;;;;;;2585277;54;20898;31
2022/03/02 17:31:55;;;;;;;69.80;37.85;;;3.70;97.10;;;;;;2583761;54;20033;31
2022/03/02 17:34:32;;;;;;;51.95;29.52;;;3.60;97.30;;;;;;2584085;54;20581;31
2022/03/02 17:37:07;;;;;;;81.60;43.97;;;3.60;97.30;;;;;;2583835;54;20046;31
2022/03/02 17:39:43;;;;;;;90.50;45.35;;;3.50;97.70;;;;;;2585104;54;20054;31
2022/03/02 17:42:19;;;;;;;;;;;3.40;98.70;;;;;;2585250;54;20073;31
2022/03/02 17:45:01;;;;;;;99.03;46.38;;;3.40;99.00;;;;;;2584925;54;19960;31
2022/03/02 17:47:40;;;;;;;113.10;52.50;;;3.40;99.00;;;;;;2603911;46;20832;31
2022/03/02 17:50:20;;;;;;;118.75;55.80;;;3.30;99.00;;;;;;2584459;54;20961;31
2022/03/02 17:52:55;;;;;;;125.57;56.77;;;3.20;99.00;;;;;;2584382;54;20743;31
2022/03/02 17:55:31;;;;;;;110.05;56.30;;;3.10;99.50;;;;;;2584162;54;21003;31
2022/03/02 17:58:11;;;;;;;120.88;60.92;;;3.00;99.50;;;;;;2584284;54;20041;31
2022/03/02 18:00:50;;;;;;;161.65;82.72;;;3.00;99.30;;;;;;2584169;54;20026;31
2022/03/02 18:03:29;;;;;;;177.45;87.80;;;2.90;99.60;;;;;;2584823;54;20031;31
2022/03/02 18:06:10;;;;;;;233.13;112.53;;;2.90;99.90;;;;;;2585048;54;20054;31
2022/03/02 18:08:46;;;;;;;170.30;83.90;;;2.80;99.90;;;;;;2603097;47;21030;31
2022/03/02 18:11:28;;;;;;;192.40;83.75;;;2.80;99.90;;;;;;2583976;54;20639;31
2022/03/02 18:14:05;;;;;;;233.20;100.00;;;2.70;99.90;;;;;;2584099;54;20085;31
2022/03/02 18:16:43;;;;;;;161.20;72.30;;;2.80;99.90;;;;;;2583667;54;21048;31
2022/03/02 18:19:21;;;;;;;149.20;71.85;;;2.60;99.90;;;;;;2584689;54;20957;31
2022/03/02 18:22:11;;;;;;;135.75;63.70;;;2.50;99.90;;;;;;2584963;54;20830;31
2022/03/02 18:24:46;;;;;;;143.27;66.07;;;2.50;99.90;;;;;;2584985;54;20971;31
2022/03/02 18:27:21;;;;;;;137.23;66.07;;;2.40;99.90;;;;;;2603171;47;20042;31
2022/03/02 18:29:56;;;;;;;146.93;71.85;;;2.40;99.90;;;;;;2585330;54;20041;31
2022/03/02 18:32:32;;;;;;;153.40;68.88;;;2.30;99.90;;;;;;2584106;54;20077;31
2022/03/02 18:35:08;;;;;;;130.18;60.03;;;2.10;99.90;;;;;;2603218;47;20045;31
2022/03/02 18:37:46;;;;;;;99.25;51.95;;;2.00;99.90;;;;;;2603227;47;22453;31
2022/03/02 18:40:22;;;;;;;113.60;59.10;;;2.00;99.90;;;;;;2584846;54;20995;31
2022/03/02 18:42:58;;;;;;;111.50;58.37;;;1.80;99.90;;;;;;2682355;39;20644;31
2022/03/02 18:45:36;;;;;;;115.28;55.20;;;1.80;99.90;;;;;;2585547;54;20065;31
2022/03/02 18:48:13;;;;;;;128.20;63.03;;;1.70;99.90;;;;;;2683179;39;20573;31
2022/03/02 18:50:45;;;;;;;133.35;63.65;;;1.70;99.90;;;;;;2586072;54;21131;31
2022/03/02 18:53:24;;;;;;;127.60;62.50;;;1.60;99.90;;;;;;2585780;54;20550;31
2022/03/02 18:55:58;;;;;;;135.95;68.30;;;1.70;99.90;;;;;;2604141;46;20119;31
2022/03/02 18:58:34;;;;;;;132.52;66.90;;;1.50;99.90;;;;;;2683653;39;21101;31
2022/03/02 19:01:11;;;;;;;145.63;69.60;;;1.40;99.90;;;;;;2585812;54;20904;31
2022/03/02 19:03:44;;;;;;;104.50;51.95;;;1.30;99.90;;;;;;2683665;39;21251;31
2022/03/02 19:06:20;;;;;;;133.10;68.18;;;1.30;99.90;;;;;;2585406;54;20931;31
2022/03/02 19:08:58;;;;;;;116.00;55.72;;;1.20;99.90;;;;;;2584855;54;20022;31
2022/03/02 19:11:36;;;;;;;102.93;52.07;;;1.20;99.90;;;;;;2595753;46;20042;31
2022/03/02 19:14:11;;;;;;;118.30;58.15;;;1.10;99.90;;;;;;2585808;54;20241;31
2022/03/02 19:16:47;;;;;;;100.37;50.00;;;1.10;99.90;;;;;;2585619;54;20060;31
2022/03/02 19:19:20;;;;;;;115.10;58.10;;;1.10;99.90;;;;;;2585494;54;22159;31
2022/03/02 19:21:57;;;;;;;103.75;53.55;;;1.00;99.90;;;;;;2585563;54;20027;31
2022/03/02 19:24:35;;;;;;;89.90;49.88;;;1.00;99.90;;;;;;2585714;54;21198;31
2022/03/02 19:27:08;;;;;;;109.25;56.70;;;1.00;99.90;;;;;;2604520;46;21169;31
2022/03/02 19:29:47;;;;;;;116.43;57.92;;;0.90;99.90;;;;;;2584643;54;20022;31
2022/03/02 19:32:24;;;;;;;109.60;52.30;;;0.80;99.90;;;;;;2585660;54;21010;31
2022/03/02 19:35:04;;;;;;;98.30;54.20;;;0.80;99.90;;;;;;2604081;46;20818;31
2022/03/02 19:37:40;;;;;;;110.75;54.20;;;0.70;99.90;;;;;;2584766;54;20929;31
2022/03/02 19:40:15;;;;;;;112.15;53.10;;;0.60;99.90;;;;;;2584609;54;21008;31
2022/03/02 19:42:50;;;;;;;112.53;55.77;;;0.50;99.90;;;;;;2585969;54;21404;31
2022/03/02 19:45:28;;;;;;;108.70;56.60;;;0.50;99.90;;;;;;2585644;54;21183;31
2022/03/02 19:48:09;;;;;;;115.10;57.60;;;0.50;99.90;;;;;;2584889;54;21028;31
2022/03/02 19:50:43;;;;;;;98.95;52.80;;;0.40;99.90;;;;;;2584604;54;20984;31
2022/03/02 19:53:21;;;;;;;122.53;62.00;;;0.40;99.90;;;;;;2584639;54;20078;31
2022/03/02 19:56:07;;;;;;;111.27;63.30;;;0.50;99.90;;;;;;2585577;54;20960;31
2022/03/02 19:58:44;;;;;;;127.15;65.05;;;0.40;99.90;;;;;;2702386;39;22268;31
2022/03/02 20:01:19;;;;;;;118.55;61.85;;;0.30;99.90;;;;;;2584632;54;20209;31
2022/03/02 20:03:59;;;;;;;116.50;62.50;;;0.20;99.90;;;;;;2585105;54;20033;31
2022/03/02 20:06:39;;;;;;;119.63;64.23;;;0.20;99.90;;;;;;2585642;54;20036;31
2022/03/02 20:09:28;;;;;;;136.47;76.07;;;0.10;99.90;;;;;;2585463;54;21111;31
2022/03/02 20:12:06;;;;;;;146.83;78.40;;;0.10;99.90;;;;;;2584504;54;21070;31
2022/03/02 20:14:42;;;;;;;130.45;70.00;;;0.10;99.90;;;;;;2603719;46;20030;31
2022/03/02 20:17:18;;;;;;;125.97;69.73;;;0.00;99.90;;;;;;2584702;54;20806;31
2022/03/02 20:19:54;;;;;;;123.50;65.20;;;-0.10;99.90;;;;;;2585326;54;20344;31
2022/03/02 20:22:30;;;;;;;141.10;74.90;;;-0.10;99.90;;;;;;2584400;54;21632;31
2022/03/02 20:25:03;;;;;;;144.73;74.93;;;-0.10;99.90;;;;;;2603719;46;25159;31
2022/03/02 20:27:57;;;;;;;128.53;65.63;;;-0.20;99.90;;;;;;2584431;54;20243;31
2022/03/02 20:30:39;;;;;;;145.02;71.80;;;-0.10;99.90;;;;;;2584272;54;20057;31
2022/03/02 20:33:16;;;;;;;130.48;67.15;;;-0.20;99.90;;;;;;2584367;54;19942;31
2022/03/02 20:35:49;;;;;;;;;;;-0.30;99.90;;;;;;2584653;54;20034;31
2022/03/02 20:38:24;;;;;;;104.13;52.90;;;-0.30;99.90;;;;;;2602671;46;20020;31
2022/03/02 20:43:53;;;;;;;129.20;65.05;;;-0.40;99.90;;;;;;2585437;54;20068;31
2022/03/02 20:49:38;;;;;;;109.88;60.22;;;-0.10;99.90;;;;;;2585570;54;20026;31
2022/03/02 20:52:45;;;;;;;123.97;62.63;;;-0.10;99.90;;;;;;2585578;54;20956;31
2022/03/02 21:01:31;;;;;;;116.50;58.90;;;-0.30;99.90;;;;;;2585499;54;20863;31
2022/03/02 21:04:11;;;;;;;102.67;55.40;;;-0.40;99.90;;;;;;2603789;46;20031;31
2022/03/02 21:07:02;;;;;;;114.68;57.03;;;-0.40;99.90;;;;;;2594098;46;20484;31
2022/03/02 21:09:52;;;;;;;91.05;44.67;;;-0.50;99.90;;;;;;2599776;46;20965;31
2022/03/02 21:15:38;;;;;;;95.40;51.60;;;-0.60;99.90;;;;;;2585245;54;21180;31
2022/03/02 21:21:40;;;;;;;93.47;48.83;;;-0.70;99.90;;;;;;2602966;46;20502;31
2022/03/02 21:27:16;;;;;;;88.25;44.30;;;-0.80;99.90;;;;;;2585132;54;20894;31
2022/03/02 21:30:28;;;;;;;92.50;48.83;;;-0.80;99.90;;;;;;2585153;54;21049;31
2022/03/02 21:36:22;;;;;;;86.03;43.57;;;-0.90;99.90;;;;;;2603883;46;20028;31
2022/03/02 22:23:30;;;;;;;98.50;49.20;;;-1.60;99.90;;;;;;2682362;39;20496;31
2022/03/02 22:37:50;;;;;;;98.72;50.67;;;-1.80;99.90;;;;;;2585173;54;20929;31
2022/03/02 22:40:27;;;;;;;100.10;57.00;;;-1.80;99.90;;;;;;2603982;46;20038;31
2022/03/02 22:46:15;;;;;;;110.07;57.20;;;-1.90;99.90;;;;;;2584810;54;20022;31
2022/03/02 22:49:10;;;;;;;107.55;58.42;;;-2.00;99.90;;;;;;2584917;54;20986;31
2022/03/02 22:54:58;;;;;;;108.35;55.95;;;-2.00;99.90;;;;;;2585540;54;20939;31
2022/03/02 22:57:41;;;;;;;113.90;59.50;;;-2.00;99.90;;;;;;2586011;54;20032;31
2022/03/02 23:00:50;;;;;;;91.00;50.30;;;-2.20;99.90;;;;;;2702085;39;21170;31
2022/03/02 23:03:27;;;;;;;105.37;56.17;;;-2.10;99.90;;;;;;2586014;54;20030;31
2022/03/02 23:14:28;;;;;;;96.53;52.28;;;-2.20;99.90;;;;;;2603828;46;21016;31
2022/03/02 23:19:51;;;;;;;106.55;55.92;;;-2.30;99.90;;;;;;2585677;54;20037;31
2022/03/02 23:22:26;;;;;;;96.50;52.25;;;-2.30;99.90;;;;;;2604242;46;20030;31
2022/03/02 23:25:02;;;;;;;117.40;62.80;;;-2.40;99.90;;;;;;2585632;54;20029;31
2022/03/02 23:27:41;;;;;;;96.00;52.67;;;-2.40;99.90;;;;;;2585266;54;20052;31
2022/03/02 23:30:22;;;;;;;94.93;47.63;;;-2.50;99.90;;;;;;2584799;54;20039;31
2022/03/02 23:32:57;;;;;;;97.05;51.90;;;-2.40;99.90;;;;;;2584662;54;20357;31
2022/03/02 23:35:37;;;;;;;;;;;-2.50;99.90;;;;;;2586013;54;20148;31
2022/03/02 23:38:14;;;;;;;119.80;62.80;;;-2.50;99.90;;;;;;2702093;39;20417;31
2022/03/02 23:40:51;;;;;;;127.60;62.35;;;-2.50;99.90;;;;;;2585475;54;20863;31
2022/03/02 23:43:32;;;;;;;133.15;64.68;;;-2.60;99.90;;;;;;2585769;54;20084;31
2022/03/02 23:46:14;;;;;;;146.47;65.53;;;-2.60;99.90;;;;;;2584791;54;20030;31
2022/03/02 23:48:49;;;;;;;201.55;77.72;;;-2.60;99.90;;;;;;2584567;54;20249;31